Time;durP1;ratioP1;P1;durP2;ratioP2;P2;SDS_P1;SDS_P2;PMS_P1;PMS_P2;Temp;Humidity;BMP_temperature;BMP_pressure;BME280_temperature;BME280_humidity;BME280_pressure;Samples;Min_cycle;Max_cycle;Signal;HPM_P1;HPM_P2
2023/12/25 00:02:17;;;;;;;2.38;0.90;;;;;;;13.08;100.00;100759.59;5205721;28;20029;-77
2023/12/25 00:04:48;;;;;;;4.22;1.30;;;;;;;13.18;100.00;100760.16;5208378;28;20048;-78
2023/12/25 00:07:18;;;;;;;4.32;0.90;;;;;;;13.18;100.00;100768.25;5210259;28;20028;-77
2023/12/25 00:09:49;;;;;;;5.32;1.40;;;;;;;13.14;100.00;100758.84;5211457;28;20412;-78
2023/12/25 00:12:20;;;;;;;5.47;1.00;;;;;;;13.16;100.00;100769.47;5206989;28;20029;-78
2023/12/25 00:14:51;;;;;;;5.63;1.20;;;;;;;13.12;100.00;100766.31;5214555;28;20047;-77
2023/12/25 00:17:21;;;;;;;9.48;1.40;;;;;;;13.19;100.00;100763.69;5211970;28;20033;-77
2023/12/25 00:19:51;;;;;;;4.82;1.30;;;;;;;13.15;100.00;100765.09;5207246;28;20485;-78
2023/12/25 00:22:22;;;;;;;4.55;0.80;;;;;;;13.18;100.00;100776.31;5211294;28;20025;-77
2023/12/25 00:24:52;;;;;;;4.32;1.08;;;;;;;13.19;100.00;100769.09;5210649;28;20030;-77
2023/12/25 00:27:23;;;;;;;2.65;0.75;;;;;;;13.18;100.00;100757.47;5214388;28;20222;-77
2023/12/25 00:29:53;;;;;;;7.15;1.20;;;;;;;13.21;100.00;100770.63;5209128;28;20116;-77
2023/12/25 00:32:24;;;;;;;6.00;0.95;;;;;;;13.28;100.00;100773.41;5211354;28;20025;-77
2023/12/25 00:34:54;;;;;;;4.13;1.10;;;;;;;13.29;100.00;100758.91;5208847;28;20017;-77
2023/12/25 00:37:25;;;;;;;4.53;1.23;;;;;;;13.23;100.00;100758.81;5207407;28;20083;-77
2023/12/25 00:39:55;;;;;;;4.90;0.77;;;;;;;13.29;100.00;100758.06;5212016;28;20029;-77
2023/12/25 00:42:26;;;;;;;5.45;0.47;;;;;;;13.26;100.00;100763.84;5209336;28;20394;-77
2023/12/25 00:44:56;;;;;;;1.67;0.50;;;;;;;13.29;100.00;100758.91;5209941;28;20026;-76
2023/12/25 00:47:27;;;;;;;1.90;0.65;;;;;;;13.32;100.00;100758.53;5209804;28;20036;-77
2023/12/25 00:49:57;;;;;;;1.65;0.60;;;;;;;13.34;100.00;100761.03;5219206;28;20033;-77
2023/12/25 00:52:28;;;;;;;2.05;0.60;;;;;;;13.30;100.00;100773.19;5206712;28;20033;-77
2023/12/25 00:54:58;;;;;;;4.18;0.40;;;;;;;13.29;100.00;100771.53;5210068;28;20025;-78
2023/12/25 00:57:29;;;;;;;2.47;0.77;;;;;;;13.36;100.00;100770.63;5199770;28;20025;-77
2023/12/25 01:00:00;;;;;;;4.55;0.50;;;;;;;13.42;100.00;100771.72;5208348;28;20025;-77
2023/12/25 01:02:30;;;;;;;2.58;0.40;;;;;;;13.24;100.00;100769.41;5222362;28;20032;-77
2023/12/25 01:05:02;;;;;;;0.75;0.30;;;;;;;13.32;100.00;100785.47;5211600;28;20029;-77
2023/12/25 01:07:32;;;;;;;2.45;0.50;;;;;;;13.36;100.00;100789.47;5206215;28;20030;-77
2023/12/25 01:10:03;;;;;;;2.30;0.50;;;;;;;13.36;100.00;100788.66;5208945;28;20034;-77
2023/12/25 01:12:34;;;;;;;1.42;0.65;;;;;;;13.36;100.00;100791.34;5210696;28;20116;-77
2023/12/25 01:15:05;;;;;;;1.23;0.40;;;;;;;13.29;100.00;100791.22;5207310;28;20557;-77
2023/12/25 01:17:35;;;;;;;1.02;0.50;;;;;;;13.18;100.00;100786.28;5208673;28;20036;-78
2023/12/25 01:20:06;;;;;;;1.60;0.73;;;;;;;13.22;100.00;100779.53;5210071;28;20033;-77
2023/12/25 01:22:37;;;;;;;1.70;0.50;;;;;;;13.13;100.00;100789.50;5209009;28;20025;-77
2023/12/25 01:25:07;;;;;;;1.67;0.50;;;;;;;13.13;100.00;100796.75;5210111;28;20029;-78
2023/12/25 01:27:41;;;;;;;3.22;0.82;;;;;;;13.05;100.00;100803.09;5200814;28;20116;-78
2023/12/25 01:30:12;;;;;;;1.27;0.30;;;;;;;13.09;100.00;100801.66;5213471;28;20028;-79
2023/12/25 01:32:42;;;;;;;1.02;0.60;;;;;;;13.04;100.00;100808.63;5222400;28;20072;-77
2023/12/25 01:35:13;;;;;;;1.45;0.45;;;;;;;13.03;100.00;100799.72;5213130;28;20048;-77
2023/12/25 01:37:43;;;;;;;1.00;0.40;;;;;;;12.98;100.00;100809.38;5202811;28;20037;-78
2023/12/25 01:40:16;;;;;;;0.70;0.70;;;;;;;13.02;100.00;100821.47;5208740;28;20028;-78
2023/12/25 01:42:47;;;;;;;0.63;0.40;;;;;;;13.06;100.00;100806.59;5204788;28;20110;-78
2023/12/25 01:45:18;;;;;;;1.38;0.65;;;;;;;13.06;100.00;100814.69;5206620;28;20458;-78
2023/12/25 01:47:49;;;;;;;1.25;0.60;;;;;;;13.05;100.00;100807.59;5206241;28;20026;-78
2023/12/25 01:50:19;;;;;;;4.20;0.63;;;;;;;12.95;100.00;100822.19;5205334;28;20515;-78
2023/12/25 01:52:51;;;;;;;2.65;0.80;;;;;;;13.03;100.00;100820.44;5209792;28;20025;-78
2023/12/25 01:55:22;;;;;;;2.55;0.80;;;;;;;13.05;100.00;100823.75;5210612;28;20025;-77
2023/12/25 01:57:52;;;;;;;4.28;0.80;;;;;;;12.96;100.00;100813.09;5203516;28;20511;-77
2023/12/25 02:00:23;;;;;;;2.92;0.88;;;;;;;12.99;100.00;100821.81;5224615;28;20488;-77
2023/12/25 02:02:53;;;;;;;4.57;1.10;;;;;;;13.02;100.00;100829.53;5209259;28;20032;-77
2023/12/25 02:05:24;;;;;;;1.77;0.60;;;;;;;13.04;100.00;100820.25;5208329;28;20104;-78
2023/12/25 02:07:55;;;;;;;4.53;1.10;;;;;;;13.09;100.00;100828.59;5205873;28;20029;-78
2023/12/25 02:10:27;;;;;;;6.40;1.02;;;;;;;13.15;100.00;100825.19;5199663;28;20033;-78
2023/12/25 02:13:00;;;;;;;2.95;0.93;;;;;;;13.02;100.00;100821.47;5209791;28;20021;-78
2023/12/25 02:15:30;;;;;;;4.32;0.98;;;;;;;13.15;100.00;100827.91;5208264;28;20099;-77
2023/12/25 02:18:02;;;;;;;5.68;1.05;;;;;;;13.05;100.00;100811.16;5207540;28;20026;-78
2023/12/25 02:20:33;;;;;;;4.43;0.90;;;;;;;13.19;100.00;100812.19;5208378;28;20120;-78
2023/12/25 02:23:08;;;;;;;8.43;1.20;;;;;;;13.20;100.00;100805.75;5206972;28;20111;-77
2023/12/25 02:25:50;;;;;;;9.00;1.40;;;;;;;13.17;100.00;100804.28;5199265;28;20037;-78
2023/12/25 02:28:22;;;;;;;2.20;0.73;;;;;;;13.33;100.00;100797.09;5204771;28;20033;-77
2023/12/25 02:30:52;;;;;;;7.97;1.00;;;;;;;13.40;100.00;100806.09;5206880;28;20473;-77
2023/12/25 02:33:23;;;;;;;8.57;1.75;;;;;;;13.50;100.00;100798.56;5223791;28;20070;-77
2023/12/25 02:35:53;;;;;;;1.60;0.75;;;;;;;13.50;100.00;100817.44;5208502;28;20037;-77
2023/12/25 02:38:24;;;;;;;4.07;0.60;;;;;;;13.49;100.00;100794.19;5205243;28;20034;-77
2023/12/25 02:40:54;;;;;;;3.17;0.70;;;;;;;13.48;100.00;100801.44;5205887;28;20648;-77
2023/12/25 02:43:25;;;;;;;3.40;0.50;;;;;;;13.60;100.00;100804.50;5210009;28;20029;-77
2023/12/25 02:45:55;;;;;;;5.05;0.90;;;;;;;13.48;100.00;100804.16;5203585;28;20086;-77
2023/12/25 02:48:26;;;;;;;6.93;1.05;;;;;;;13.56;100.00;100799.69;5206124;28;20033;-77
2023/12/25 02:50:57;;;;;;;5.47;0.82;;;;;;;13.53;100.00;100797.38;5201956;28;20087;-77
2023/12/25 02:53:28;;;;;;;3.13;0.90;;;;;;;13.62;100.00;100796.25;5201700;28;20029;-77
2023/12/25 02:55:58;;;;;;;3.08;0.80;;;;;;;13.66;100.00;100798.38;5205694;28;20546;-77
2023/12/25 02:58:29;;;;;;;6.47;1.10;;;;;;;13.55;100.00;100806.94;5201382;28;20112;-77
2023/12/25 03:01:01;;;;;;;2.25;1.17;;;;;;;13.55;100.00;100801.53;5222850;28;20033;-77
2023/12/25 03:03:32;;;;;;;6.32;1.75;;;;;;;13.49;100.00;100802.28;5207822;28;20018;-77
2023/12/25 03:06:04;;;;;;;5.35;1.55;;;;;;;13.47;100.00;100815.13;5201300;28;20052;-77
2023/12/25 03:08:35;;;;;;;4.82;1.33;;;;;;;13.55;100.00;100819.56;5204132;28;20029;-77
2023/12/25 03:11:12;;;;;;;3.90;1.50;;;;;;;13.48;100.00;100828.41;5200054;28;20029;-77
2023/12/25 03:13:43;;;;;;;2.97;1.30;;;;;;;13.48;100.00;100823.00;5198252;28;20025;-77
2023/12/25 03:16:23;;;;;;;3.85;1.30;;;;;;;13.53;100.00;100829.72;5201670;28;20393;-77
2023/12/25 03:18:54;;;;;;;2.22;1.20;;;;;;;13.44;100.00;100831.66;5183644;28;20036;-77
2023/12/25 03:21:24;;;;;;;2.72;1.00;;;;;;;13.36;100.00;100829.06;5202227;28;20041;-77
2023/12/25 03:23:55;;;;;;;6.05;1.30;;;;;;;13.37;100.00;100830.72;5204707;28;20484;-78
2023/12/25 03:26:26;;;;;;;3.90;1.13;;;;;;;13.36;100.00;100823.69;5205238;28;20036;-78
2023/12/25 03:28:56;;;;;;;6.65;1.40;;;;;;;13.32;100.00;100833.16;5202013;28;20022;-78
2023/12/25 03:31:27;;;;;;;5.18;1.35;;;;;;;13.16;100.00;100834.94;5204736;28;20037;-77
2023/12/25 03:33:59;;;;;;;3.85;1.15;;;;;;;13.23;100.00;100829.69;5184206;28;20029;-78
2023/12/25 03:36:30;;;;;;;2.47;1.30;;;;;;;13.24;100.00;100828.66;5201091;28;20033;-77
2023/12/25 03:39:00;;;;;;;1.90;1.30;;;;;;;13.11;100.00;100815.81;5207811;28;20460;-78
2023/12/25 03:41:31;;;;;;;2.85;1.40;;;;;;;13.16;100.00;100821.47;5206860;28;20100;-78
2023/12/25 03:44:02;;;;;;;4.55;1.23;;;;;;;13.13;100.00;100829.09;5212902;28;20435;-78
2023/12/25 03:46:33;;;;;;;3.78;1.23;;;;;;;13.08;100.00;100820.72;5204465;28;20476;-78
2023/12/25 03:49:03;;;;;;;1.85;1.17;;;;;;;12.99;100.00;100806.47;5205552;28;20036;-78
2023/12/25 03:51:35;;;;;;;1.67;1.20;;;;;;;13.05;100.00;100821.06;5208677;28;20492;-78
2023/12/25 03:54:05;;;;;;;2.20;1.35;;;;;;;12.96;100.00;100812.25;5211879;28;20037;-77
2023/12/25 03:56:36;;;;;;;1.30;0.90;;;;;;;12.99;100.00;100817.25;5224265;28;20025;-78
2023/12/25 03:59:08;;;;;;;1.63;1.13;;;;;;;12.98;100.00;100818.28;5206388;28;20033;-78
2023/12/25 04:01:39;;;;;;;2.70;1.30;;;;;;;13.03;100.00;100810.50;5209204;28;20036;-77
2023/12/25 04:04:09;;;;;;;1.58;1.25;;;;;;;13.01;100.00;100823.31;5211861;28;20480;-78
2023/12/25 04:06:40;;;;;;;1.88;1.25;;;;;;;12.93;100.00;100815.31;5207550;28;20044;-77
2023/12/25 04:09:10;;;;;;;3.80;1.20;;;;;;;12.92;100.00;100824.41;5208453;28;20032;-78
2023/12/25 04:11:41;;;;;;;1.67;1.20;;;;;;;12.93;100.00;100821.53;5205946;28;20075;-78
2023/12/25 04:14:11;;;;;;;1.38;0.90;;;;;;;12.94;100.00;100831.25;5209549;28;20468;-78
2023/12/25 04:16:42;;;;;;;3.47;0.93;;;;;;;12.92;100.00;100819.03;5207875;28;20034;-78
2023/12/25 04:19:12;;;;;;;2.20;1.08;;;;;;;12.93;100.00;100829.59;5209177;28;20056;-78
2023/12/25 04:21:43;;;;;;;2.40;1.40;;;;;;;12.97;100.00;100824.69;5208595;28;20507;-78
2023/12/25 04:24:13;;;;;;;1.88;1.35;;;;;;;12.89;100.00;100830.97;5210371;28;20278;-78
2023/12/25 04:26:44;;;;;;;1.55;1.10;;;;;;;12.92;100.00;100819.03;5208552;28;20036;-78
2023/12/25 04:29:14;;;;;;;2.03;1.23;;;;;;;12.89;100.00;100817.50;5210489;28;20070;-78
2023/12/25 04:31:45;;;;;;;1.60;1.08;;;;;;;12.78;100.00;100817.13;5205507;28;20080;-78
2023/12/25 04:34:16;;;;;;;1.40;1.30;;;;;;;12.83;100.00;100818.25;5212725;28;20108;-78
2023/12/25 04:36:46;;;;;;;2.45;1.42;;;;;;;12.76;100.00;100811.94;5205888;28;20048;-78
2023/12/25 04:39:17;;;;;;;1.30;1.02;;;;;;;12.68;100.00;100817.38;5209627;28;20082;-78
2023/12/25 04:41:47;;;;;;;1.60;1.05;;;;;;;12.69;100.00;100810.97;5208324;28;20112;-78
2023/12/25 04:44:18;;;;;;;4.22;1.13;;;;;;;12.68;100.00;100807.44;5210833;28;20426;-78
2023/12/25 04:46:48;;;;;;;2.67;1.02;;;;;;;12.76;100.00;100809.22;5208698;28;20019;-78
2023/12/25 04:49:19;;;;;;;2.95;1.10;;;;;;;12.79;100.00;100800.78;5206466;28;20029;-78
2023/12/25 04:51:49;;;;;;;3.53;1.10;;;;;;;12.74;100.00;100807.72;5208206;28;20384;-78
2023/12/25 04:54:20;;;;;;;2.00;1.02;;;;;;;12.65;100.00;100797.03;5210943;28;20029;-78
2023/12/25 04:56:52;;;;;;;1.27;1.10;;;;;;;12.71;100.00;100808.94;5207146;28;20021;-78
2023/12/25 04:59:23;;;;;;;1.10;1.00;;;;;;;12.68;100.00;100804.75;5207391;28;20024;-78
2023/12/25 05:01:54;;;;;;;1.40;1.30;;;;;;;12.73;100.00;100806.06;5208237;28;20025;-78
2023/12/25 05:04:25;;;;;;;1.70;1.30;;;;;;;12.68;100.00;100814.66;5209512;28;20040;-78
2023/12/25 05:06:55;;;;;;;1.20;0.93;;;;;;;12.70;100.00;100801.84;5207658;28;20095;-78
2023/12/25 05:09:26;;;;;;;1.85;1.10;;;;;;;12.68;100.00;100804.75;5210444;28;20033;-78
2023/12/25 05:11:56;;;;;;;1.85;1.05;;;;;;;12.54;100.00;100800.16;5198045;28;20155;-78
2023/12/25 05:14:27;;;;;;;3.17;1.10;;;;;;;12.58;100.00;100803.31;5208932;28;20051;-78
2023/12/25 05:16:58;;;;;;;3.13;1.52;;;;;;;12.56;100.00;100800.81;5207676;28;20100;-78
2023/12/25 05:19:28;;;;;;;4.60;2.05;;;;;;;12.62;100.00;100800.09;5204362;28;20033;-78
2023/12/25 05:21:59;;;;;;;2.10;1.50;;;;;;;12.70;100.00;100807.25;5216753;28;20079;-78
2023/12/25 05:24:30;;;;;;;4.55;2.10;;;;;;;12.51;100.00;100797.00;5205548;28;20480;-78
2023/12/25 05:27:01;;;;;;;45.03;31.48;;;;;;;12.63;100.00;100801.75;5203618;28;20024;-78
2023/12/25 05:29:31;;;;;;;1.30;0.93;;;;;;;12.51;100.00;100797.00;5201436;28;20032;-78
2023/12/25 05:32:02;;;;;;;7.32;4.60;;;;;;;12.62;100.00;100797.41;5204702;28;20021;-78
2023/12/25 05:34:32;;;;;;;1.85;0.85;;;;;;;12.69;100.00;100797.50;5208487;28;20473;-77
2023/12/25 05:37:03;;;;;;;2.90;1.92;;;;;;;12.58;100.00;100789.88;5206022;28;20508;-78
2023/12/25 05:39:33;;;;;;;1.42;1.20;;;;;;;12.60;100.00;100786.00;5200064;28;20037;-78
2023/12/25 05:42:04;;;;;;;2.35;0.65;;;;;;;12.59;100.00;100796.91;5208855;28;20029;-78
2023/12/25 05:44:35;;;;;;;0.60;0.55;;;;;;;12.51;100.00;100797.81;5205807;28;20036;-78
2023/12/25 05:47:05;;;;;;;4.93;1.38;;;;;;;12.61;100.00;100793.03;5216423;28;20025;-78
2023/12/25 05:49:36;;;;;;;1.42;0.50;;;;;;;12.59;100.00;100783.47;5200245;28;20051;-78
2023/12/25 05:52:07;;;;;;;0.70;0.68;;;;;;;12.53;100.00;100789.56;5207161;28;20025;-78
2023/12/25 05:54:38;;;;;;;1.02;0.60;;;;;;;12.57;100.00;100794.41;5200921;28;20029;-78
2023/12/25 05:57:08;;;;;;;1.88;1.60;;;;;;;12.63;100.00;100798.22;5194774;28;20055;-78
2023/12/25 05:59:39;;;;;;;1.35;1.25;;;;;;;12.66;100.00;100795.19;5202018;28;20040;-78
2023/12/25 06:02:11;;;;;;;2.08;1.08;;;;;;;12.60;100.00;100786.00;5207715;28;20029;-78
2023/12/25 06:04:41;;;;;;;1.58;1.10;;;;;;;12.58;100.00;100800.63;5200148;28;20075;-78
2023/12/25 06:07:12;;;;;;;20.55;11.38;;;;;;;12.61;100.00;100798.41;5206501;28;20024;-78
2023/12/25 06:09:43;;;;;;;1.58;0.73;;;;;;;12.56;100.00;100795.44;5204843;28;20028;-78
2023/12/25 06:12:13;;;;;;;5.32;4.35;;;;;;;12.64;100.00;100791.81;5199028;28;20053;-78
2023/12/25 06:14:44;;;;;;;2.55;2.05;;;;;;;12.68;100.00;100802.06;5202936;28;20040;-78
2023/12/25 06:17:14;;;;;;;2.75;1.88;;;;;;;12.49;100.00;100794.47;5201718;28;20030;-78
2023/12/25 06:19:45;;;;;;;2.63;1.95;;;;;;;12.54;100.00;100794.75;5201357;28;20028;-77
2023/12/25 06:22:15;;;;;;;0.75;0.68;;;;;;;12.56;100.00;100803.50;5205419;28;20025;-78
2023/12/25 06:24:46;;;;;;;2.30;1.25;;;;;;;12.59;100.00;100797.75;5201955;28;20033;-78
2023/12/25 06:27:16;;;;;;;2.85;2.35;;;;;;;12.66;100.00;100801.41;5203962;28;20025;-78
2023/12/25 06:29:47;;;;;;;2.90;1.40;;;;;;;12.70;100.00;100799.16;5203585;28;20040;-78
2023/12/25 06:32:17;;;;;;;1.77;1.20;;;;;;;12.72;100.00;100801.69;5201755;28;20025;-78
2023/12/25 06:34:48;;;;;;;22.50;13.20;;;;;;;12.75;100.00;100804.88;5203519;28;20033;-78
2023/12/25 06:37:18;;;;;;;11.50;6.57;;;;;;;12.72;100.00;100801.69;5186989;28;20083;-78
2023/12/25 06:39:49;;;;;;;1.50;1.20;;;;;;;12.72;100.00;100805.22;5198868;28;20029;-78
2023/12/25 06:42:19;;;;;;;1.23;0.60;;;;;;;12.66;100.00;100819.41;5203633;28;20029;-78
2023/12/25 06:44:50;;;;;;;1.65;1.42;;;;;;;12.68;100.00;100817.38;5201955;28;20369;-78
2023/12/25 06:47:20;;;;;;;0.60;0.50;;;;;;;12.64;100.00;100816.88;5201663;28;20028;-78
2023/12/25 06:49:51;;;;;;;11.13;9.95;;;;;;;12.67;100.00;100813.00;5203115;28;20558;-78
2023/12/25 06:52:21;;;;;;;2.00;1.60;;;;;;;12.77;100.00;100807.38;5205750;28;20045;-78
2023/12/25 06:54:52;;;;;;;1.10;0.50;;;;;;;12.75;100.00;100804.00;5205917;28;20021;-78
2023/12/25 06:57:22;;;;;;;0.90;0.60;;;;;;;12.85;100.00;100796.50;5202831;28;20036;-78
2023/12/25 06:59:53;;;;;;;0.60;0.43;;;;;;;12.73;100.00;100806.06;5202945;28;20087;-78
2023/12/25 07:02:23;;;;;;;1.60;1.05;;;;;;;12.80;100.00;100798.91;5204621;28;20033;-78
2023/12/25 07:04:54;;;;;;;2.53;1.30;;;;;;;12.89;100.00;100806.75;5205955;28;20063;-78
2023/12/25 07:07:24;;;;;;;0.93;0.55;;;;;;;12.75;100.00;100804.88;5200463;28;20021;-78
2023/12/25 07:09:55;;;;;;;1.63;0.90;;;;;;;12.87;100.00;100802.56;5199523;28;20022;-78
2023/12/25 07:12:25;;;;;;;1.65;0.60;;;;;;;12.90;100.00;100813.81;5205270;28;20063;-78
2023/12/25 07:14:56;;;;;;;1.17;0.75;;;;;;;12.80;100.00;100815.06;5207282;28;20030;-78
2023/12/25 07:17:26;;;;;;;0.40;0.40;;;;;;;12.82;100.00;100810.34;5208249;28;20032;-78
2023/12/25 07:19:57;;;;;;;1.17;0.80;;;;;;;12.82;100.00;100813.06;5204500;28;20534;-78
2023/12/25 07:22:29;;;;;;;2.55;0.90;;;;;;;12.80;100.00;100817.75;5207912;28;20054;-78
2023/12/25 07:25:05;;;;;;;1.65;0.40;;;;;;;12.84;100.00;100819.91;5208455;28;20029;-78
2023/12/25 07:27:36;;;;;;;1.77;0.70;;;;;;;12.93;100.00;100818.00;5204255;28;20025;-79
2023/12/25 07:30:07;;;;;;;0.73;0.73;;;;;;;12.91;100.00;100822.72;5206913;28;20145;-78
2023/12/25 07:32:41;;;;;;;0.80;0.60;;;;;;;12.88;100.00;100817.69;5206684;28;20704;-78
2023/12/25 07:35:12;;;;;;;0.93;0.73;;;;;;;12.85;100.00;100821.59;5209046;28;20064;-78
2023/12/25 07:37:42;;;;;;;1.15;0.77;;;;;;;12.85;100.00;100835.06;5203352;28;20568;-78
2023/12/25 07:40:13;;;;;;;1.13;0.85;;;;;;;12.73;100.00;100824.91;5204690;28;20195;-78
2023/12/25 07:42:43;;;;;;;1.27;1.15;;;;;;;12.75;100.00;100826.41;5206893;28;20117;-78
2023/12/25 07:45:14;;;;;;;3.25;1.60;;;;;;;12.85;100.00;100824.31;5219792;28;20500;-78
2023/12/25 07:47:44;;;;;;;1.73;1.50;;;;;;;12.81;100.00;100820.28;5207649;28;20033;-78
2023/12/25 07:50:15;;;;;;;1.13;1.02;;;;;;;12.89;100.00;100824.75;5209346;28;20028;-78
2023/12/25 07:52:45;;;;;;;2.33;1.83;;;;;;;12.77;100.00;100828.91;5204221;28;20112;-77
2023/12/25 07:55:16;;;;;;;1.23;0.80;;;;;;;12.78;100.00;100828.72;5205649;28;20378;-77
2023/12/25 07:57:46;;;;;;;1.40;0.90;;;;;;;12.72;100.00;100842.06;5205741;28;20079;-78
2023/12/25 08:00:17;;;;;;;1.83;0.95;;;;;;;12.76;100.00;100836.16;5208036;28;20020;-77
2023/12/25 08:02:47;;;;;;;2.88;2.42;;;;;;;12.72;100.00;100834.84;5207389;28;20021;-77
2023/12/25 08:05:18;;;;;;;5.05;3.53;;;;;;;12.79;100.00;100829.56;5203623;28;20029;-77
2023/12/25 08:07:49;;;;;;;6.60;4.65;;;;;;;12.69;100.00;100844.09;5221954;28;20017;-77
2023/12/25 08:10:19;;;;;;;3.75;2.45;;;;;;;12.80;100.00;100850.94;5203233;28;20029;-77
2023/12/25 08:12:50;;;;;;;1.52;0.98;;;;;;;12.69;100.00;100852.16;5207717;28;20025;-77
2023/12/25 08:15:20;;;;;;;1.33;1.23;;;;;;;12.66;100.00;100851.72;5204842;28;20029;-77
2023/12/25 08:17:51;;;;;;;1.35;1.00;;;;;;;12.75;100.00;100844.38;5208118;28;20033;-77
2023/12/25 08:20:22;;;;;;;1.25;1.10;;;;;;;12.74;100.00;100851.63;5207134;28;20017;-77
2023/12/25 08:22:52;;;;;;;3.40;3.10;;;;;;;12.69;100.00;100854.84;5208106;28;20032;-77
2023/12/25 08:25:23;;;;;;;18.55;13.35;;;;;;;12.77;100.00;100858.53;5208531;28;20074;-77
2023/12/25 08:27:54;;;;;;;1.90;1.70;;;;;;;12.77;100.00;100862.06;5205139;28;20021;-78
2023/12/25 08:30:25;;;;;;;1.17;0.65;;;;;;;12.72;100.00;100858.22;5205493;28;20025;-77
2023/12/25 08:32:55;;;;;;;2.53;2.25;;;;;;;12.74;100.00;100861.56;5208290;28;20381;-77
2023/12/25 08:35:26;;;;;;;4.65;3.92;;;;;;;12.76;100.00;100859.53;5209199;28;20034;-77
2023/12/25 08:37:56;;;;;;;0.77;0.70;;;;;;;12.78;100.00;100852.13;5205034;28;20477;-78
2023/12/25 08:40:27;;;;;;;3.00;1.02;;;;;;;12.70;100.00;100861.06;5207910;28;20053;-77
2023/12/25 08:42:58;;;;;;;1.35;1.08;;;;;;;12.76;100.00;100856.84;5206936;28;20021;-77
2023/12/25 08:45:28;;;;;;;1.33;0.80;;;;;;;12.81;100.00;100854.47;5205730;28;20040;-77
2023/12/25 08:47:59;;;;;;;1.38;1.20;;;;;;;12.87;100.00;100853.72;5205413;28;20017;-77
2023/12/25 08:50:29;;;;;;;1.20;1.00;;;;;;;12.86;100.00;100852.06;5207004;28;20033;-77
2023/12/25 08:53:00;;;;;;;2.55;1.50;;;;;;;12.89;100.00;100835.53;5206919;28;20076;-77
2023/12/25 08:55:31;;;;;;;1.50;1.20;;;;;;;12.74;100.00;100856.19;5204934;28;20380;-77
2023/12/25 08:58:03;;;;;;;1.33;1.10;;;;;;;12.78;100.00;100834.09;5204835;28;20029;-77
2023/12/25 09:00:33;;;;;;;3.03;1.35;;;;;;;12.81;100.00;100841.00;5204156;28;20021;-77
2023/12/25 09:03:04;;;;;;;1.05;0.85;;;;;;;12.95;100.00;100859.03;5207817;28;20578;-77
2023/12/25 09:05:35;;;;;;;1.60;1.17;;;;;;;12.98;100.00;100877.53;5203606;28;20025;-77
2023/12/25 09:08:06;;;;;;;2.80;0.70;;;;;;;12.98;100.00;100880.22;5219943;28;20114;-77
2023/12/25 09:10:36;;;;;;;0.70;0.70;;;;;;;13.07;100.00;100891.78;5204109;28;20667;-77
2023/12/25 09:13:07;;;;;;;1.80;0.90;;;;;;;13.06;100.00;100873.94;5205904;28;20028;-77
2023/12/25 09:15:37;;;;;;;0.80;0.70;;;;;;;12.98;100.00;100877.53;5207120;28;20094;-77
2023/12/25 09:18:08;;;;;;;0.70;0.70;;;;;;;12.99;100.00;100891.81;5203123;28;20029;-77
2023/12/25 09:20:38;;;;;;;0.88;0.77;;;;;;;13.03;100.00;100885.91;5205365;28;20150;-77
2023/12/25 09:23:09;;;;;;;1.38;0.60;;;;;;;13.06;100.00;100896.31;5205590;28;20416;-78
2023/12/25 09:25:39;;;;;;;3.90;0.80;;;;;;;13.23;100.00;100899.72;5205237;28;20078;-77
2023/12/25 09:28:11;;;;;;;3.03;0.80;;;;;;;13.32;100.00;100911.28;5204542;28;20036;-77
2023/12/25 09:30:42;;;;;;;1.65;0.80;;;;;;;13.29;100.00;100917.03;5204825;28;20033;-77
2023/12/25 09:33:13;;;;;;;1.48;0.90;;;;;;;13.30;100.00;100916.81;5207429;28;20451;-77
2023/12/25 09:35:44;;;;;;;15.50;7.80;;;;;;;13.28;100.00;100909.97;5204315;28;20028;-77
2023/12/25 09:38:14;;;;;;;11.60;9.57;;;;;;;13.31;100.00;100913.13;5204349;28;20033;-77
2023/12/25 09:40:45;;;;;;;20.25;17.38;;;;;;;13.35;100.00;100927.06;5204849;28;20029;-77
2023/12/25 09:43:16;;;;;;;31.25;28.10;;;;;;;13.36;100.00;100920.69;5207614;28;20380;-77
2023/12/25 09:45:46;;;;;;;15.55;13.98;;;;;;;13.42;100.00;100936.09;5202862;28;20024;-77
2023/12/25 09:48:18;;;;;;;3.38;0.50;;;;;;;13.35;100.00;100924.38;5208147;28;20025;-77
2023/12/25 09:50:48;;;;;;;4.07;1.45;;;;;;;13.38;100.00;100940.19;5202225;28;20021;-77
2023/12/25 09:53:19;;;;;;;7.00;4.43;;;;;;;13.40;100.00;100940.81;5201130;28;20562;-77
2023/12/25 09:55:53;;;;;;;1.48;0.70;;;;;;;13.47;100.00;100937.22;5216264;28;20021;-77
2023/12/25 09:58:24;;;;;;;3.00;0.97;;;;;;;13.50;100.00;100941.41;5202395;28;20029;-77
2023/12/25 10:00:55;;;;;;;1.33;0.60;;;;;;;13.45;100.00;100941.13;5206174;28;20059;-77
2023/12/25 10:03:26;;;;;;;2.10;0.85;;;;;;;13.42;100.00;100953.13;5204050;28;20105;-77
2023/12/25 10:05:56;;;;;;;0.60;0.30;;;;;;;13.47;100.00;100950.72;5204074;28;20037;-77
2023/12/25 10:08:28;;;;;;;1.63;0.52;;;;;;;13.58;100.00;100952.13;5205651;28;20025;-77
2023/12/25 10:11:01;;;;;;;1.92;0.80;;;;;;;13.52;100.00;100950.16;5205245;28;20062;-77
2023/12/25 10:13:32;;;;;;;0.60;0.55;;;;;;;13.50;100.00;100943.25;5202524;28;20067;-77
2023/12/25 10:16:02;;;;;;;0.77;0.47;;;;;;;13.57;100.00;100947.75;5204698;28;20042;-77
2023/12/25 10:18:35;;;;;;;2.97;1.83;;;;;;;13.55;100.00;100930.91;5202100;28;20026;-77
2023/12/25 10:21:09;;;;;;;1.50;1.15;;;;;;;13.64;100.00;100940.59;5206924;28;20051;-77
2023/12/25 10:23:40;;;;;;;9.77;6.05;;;;;;;13.45;100.00;100939.28;5204787;28;20026;-77
2023/12/25 10:26:12;;;;;;;13.80;9.15;;;;;;;13.46;100.00;100948.19;5205205;28;20037;-77
2023/12/25 10:28:43;;;;;;;44.95;25.45;;;;;;;13.57;100.00;100949.63;5202980;28;20489;-78
2023/12/25 10:31:13;;;;;;;39.25;23.30;;;;;;;13.58;100.00;100949.41;5205489;28;20040;-77
2023/12/25 10:33:56;;;;;;;14.15;8.63;;;;;;;13.50;100.00;100944.09;5202452;28;20021;-77
2023/12/25 10:36:27;;;;;;;4.47;2.22;;;;;;;13.53;100.00;100943.75;5204492;28;20022;-76
2023/12/25 10:38:57;;;;;;;2.33;0.85;;;;;;;13.52;100.00;100946.63;5202787;28;20076;-77
2023/12/25 10:41:33;;;;;;;3.53;0.98;;;;;;;13.53;100.00;100945.59;5204511;28;20029;-77
2023/12/25 10:44:04;;;;;;;0.60;0.60;;;;;;;13.50;100.00;100941.41;5205918;28;20104;-76
2023/12/25 10:46:36;;;;;;;5.28;2.80;;;;;;;13.54;100.00;100934.63;5206849;28;20036;-77
2023/12/25 10:49:08;;;;;;;4.35;3.80;;;;;;;13.50;100.00;100935.19;5206604;28;20479;-77
2023/12/25 10:51:43;;;;;;;1.80;1.70;;;;;;;13.46;100.00;100938.25;5204332;28;20036;-77
2023/12/25 10:54:15;;;;;;;3.55;1.35;;;;;;;13.46;100.00;100940.94;5209774;28;20036;-77
2023/12/25 10:56:47;;;;;;;3.38;0.90;;;;;;;13.46;100.00;100946.34;5207719;28;20091;-77
2023/12/25 10:59:30;;;;;;;218.65;98.75;;;;;;;13.49;100.00;100945.13;5205573;28;20024;-77
2023/12/25 11:02:05;;;;;;;12.32;8.70;;;;;;;13.51;100.00;100940.41;5210800;28;20488;-77
2023/12/25 11:04:36;;;;;;;7.47;4.60;;;;;;;13.53;100.00;100938.34;5209390;28;20112;-77
2023/12/25 11:07:07;;;;;;;3.83;1.67;;;;;;;13.51;100.00;100937.72;5211338;28;20061;-77
2023/12/25 11:09:37;;;;;;;3.25;1.83;;;;;;;13.48;100.00;100921.91;5210597;28;20053;-77
2023/12/25 11:12:09;;;;;;;6.10;4.13;;;;;;;13.47;100.00;100914.84;5210488;28;20079;-77
2023/12/25 11:14:40;;;;;;;4.47;1.55;;;;;;;13.51;100.00;100918.00;5204868;28;20171;-77
2023/12/25 11:17:11;;;;;;;13.13;9.13;;;;;;;13.52;100.00;100933.16;5211032;28;20029;-77
2023/12/25 11:19:42;;;;;;;6.28;3.35;;;;;;;13.43;100.00;100938.59;5207813;28;20098;-77
2023/12/25 11:22:33;;;;;;;7.68;2.50;;;;;;;13.44;100.00;100934.88;5211912;28;20033;-77
2023/12/25 11:25:05;;;;;;;2.08;1.58;;;;;;;13.48;100.00;100946.97;5209681;28;20083;-78
2023/12/25 11:27:36;;;;;;;7.70;2.83;;;;;;;13.55;100.00;100935.47;5209351;28;20033;-77
2023/12/25 11:30:10;;;;;;;4.78;2.58;;;;;;;13.45;100.00;100927.63;5208768;28;20025;-77
2023/12/25 11:32:45;;;;;;;4.03;3.05;;;;;;;13.41;100.00;100934.44;5204433;28;20033;-77
2023/12/25 11:35:27;;;;;;;3.00;2.38;;;;;;;13.53;100.00;100930.28;5208821;28;20035;-77